sensor_id;sensor_type;location;lat;lon;timestamp;P1;durP1;ratioP1;P2;durP2;ratioP2
11135;SDS011;5622;50.840;4.948;2022-12-10T00:02:13;44.83;;;22.17;;
11135;SDS011;5622;50.840;4.948;2022-12-10T00:04:40;51.37;;;24.93;;
11135;SDS011;5622;50.840;4.948;2022-12-10T00:07:08;48.27;;;22.40;;
11135;SDS011;5622;50.840;4.948;2022-12-10T00:09:35;55.40;;;23.73;;
11135;SDS011;5622;50.840;4.948;2022-12-10T00:12:03;41.27;;;22.37;;
11135;SDS011;5622;50.840;4.948;2022-12-10T00:14:30;48.73;;;24.23;;
11135;SDS011;5622;50.840;4.948;2022-12-10T00:16:57;46.80;;;23.40;;
11135;SDS011;5622;50.840;4.948;2022-12-10T00:19:24;48.40;;;23.10;;
11135;SDS011;5622;50.840;4.948;2022-12-10T00:21:51;55.00;;;25.50;;
11135;SDS011;5622;50.840;4.948;2022-12-10T00:24:20;52.77;;;23.47;;
11135;SDS011;5622;50.840;4.948;2022-12-10T00:26:47;55.77;;;25.13;;
11135;SDS011;5622;50.840;4.948;2022-12-10T00:29:14;54.57;;;24.57;;
11135;SDS011;5622;50.840;4.948;2022-12-10T00:31:41;50.87;;;25.03;;
11135;SDS011;5622;50.840;4.948;2022-12-10T00:34:09;59.97;;;26.57;;
11135;SDS011;5622;50.840;4.948;2022-12-10T00:36:38;48.70;;;22.90;;
11135;SDS011;5622;50.840;4.948;2022-12-10T00:39:07;50.30;;;22.67;;
11135;SDS011;5622;50.840;4.948;2022-12-10T00:41:36;45.30;;;23.40;;
11135;SDS011;5622;50.840;4.948;2022-12-10T00:44:03;53.60;;;23.97;;
11135;SDS011;5622;50.840;4.948;2022-12-10T00:46:31;53.03;;;23.83;;
11135;SDS011;5622;50.840;4.948;2022-12-10T00:48:58;50.53;;;23.37;;
11135;SDS011;5622;50.840;4.948;2022-12-10T00:51:26;54.07;;;23.47;;
11135;SDS011;5622;50.840;4.948;2022-12-10T00:53:55;46.53;;;22.67;;
11135;SDS011;5622;50.840;4.948;2022-12-10T00:56:24;48.40;;;22.83;;
11135;SDS011;5622;50.840;4.948;2022-12-10T01:01:40;50.40;;;22.20;;
11135;SDS011;5622;50.840;4.948;2022-12-10T01:04:09;50.13;;;23.07;;
11135;SDS011;5622;50.840;4.948;2022-12-10T01:06:40;56.87;;;24.33;;
11135;SDS011;5622;50.840;4.948;2022-12-10T01:09:09;50.57;;;23.20;;
11135;SDS011;5622;50.840;4.948;2022-12-10T01:11:39;43.17;;;20.10;;
11135;SDS011;5622;50.840;4.948;2022-12-10T01:14:08;45.67;;;20.50;;
11135;SDS011;5622;50.840;4.948;2022-12-10T01:16:38;43.27;;;20.27;;
11135;SDS011;5622;50.840;4.948;2022-12-10T01:19:05;46.40;;;22.63;;
11135;SDS011;5622;50.840;4.948;2022-12-10T01:21:33;53.07;;;22.40;;
11135;SDS011;5622;50.840;4.948;2022-12-10T01:24:00;47.20;;;22.03;;
11135;SDS011;5622;50.840;4.948;2022-12-10T01:26:30;52.00;;;23.37;;
11135;SDS011;5622;50.840;4.948;2022-12-10T01:28:59;47.73;;;22.27;;
11135;SDS011;5622;50.840;4.948;2022-12-10T01:31:27;49.00;;;21.57;;
11135;SDS011;5622;50.840;4.948;2022-12-10T01:33:56;49.73;;;21.97;;
11135;SDS011;5622;50.840;4.948;2022-12-10T01:36:25;49.80;;;22.33;;
11135;SDS011;5622;50.840;4.948;2022-12-10T01:38:53;45.30;;;20.13;;
11135;SDS011;5622;50.840;4.948;2022-12-10T01:41:21;42.87;;;20.73;;
11135;SDS011;5622;50.840;4.948;2022-12-10T01:43:52;51.40;;;22.87;;
11135;SDS011;5622;50.840;4.948;2022-12-10T01:46:21;47.27;;;21.50;;
11135;SDS011;5622;50.840;4.948;2022-12-10T01:48:49;45.17;;;20.13;;
11135;SDS011;5622;50.840;4.948;2022-12-10T01:51:19;51.97;;;22.57;;
11135;SDS011;5622;50.840;4.948;2022-12-10T01:53:47;50.97;;;22.23;;
11135;SDS011;5622;50.840;4.948;2022-12-10T01:56:15;46.70;;;20.67;;
11135;SDS011;5622;50.840;4.948;2022-12-10T01:58:43;50.07;;;22.20;;
11135;SDS011;5622;50.840;4.948;2022-12-10T02:01:11;51.50;;;22.43;;
11135;SDS011;5622;50.840;4.948;2022-12-10T02:03:44;45.07;;;20.93;;
11135;SDS011;5622;50.840;4.948;2022-12-10T02:06:27;48.80;;;22.20;;
11135;SDS011;5622;50.840;4.948;2022-12-10T02:09:02;49.63;;;21.53;;
11135;SDS011;5622;50.840;4.948;2022-12-10T02:11:37;46.03;;;21.17;;
11135;SDS011;5622;50.840;4.948;2022-12-10T02:14:09;53.07;;;23.30;;
11135;SDS011;5622;50.840;4.948;2022-12-10T02:16:43;47.10;;;21.13;;
11135;SDS011;5622;50.840;4.948;2022-12-10T02:19:15;51.50;;;21.73;;
11135;SDS011;5622;50.840;4.948;2022-12-10T02:24:19;51.73;;;22.77;;
11135;SDS011;5622;50.840;4.948;2022-12-10T02:26:52;52.10;;;23.23;;
11135;SDS011;5622;50.840;4.948;2022-12-10T02:29:26;49.30;;;22.40;;
11135;SDS011;5622;50.840;4.948;2022-12-10T02:31:56;52.87;;;22.17;;
11135;SDS011;5622;50.840;4.948;2022-12-10T02:34:28;46.87;;;20.60;;
11135;SDS011;5622;50.840;4.948;2022-12-10T02:37:00;50.17;;;20.87;;
11135;SDS011;5622;50.840;4.948;2022-12-10T02:39:32;51.27;;;21.67;;
11135;SDS011;5622;50.840;4.948;2022-12-10T02:42:04;46.87;;;21.20;;
11135;SDS011;5622;50.840;4.948;2022-12-10T02:44:36;53.87;;;22.53;;
11135;SDS011;5622;50.840;4.948;2022-12-10T02:47:06;53.33;;;22.13;;
11135;SDS011;5622;50.840;4.948;2022-12-10T02:49:35;43.20;;;19.43;;
11135;SDS011;5622;50.840;4.948;2022-12-10T02:52:07;48.83;;;21.77;;
11135;SDS011;5622;50.840;4.948;2022-12-10T02:54:36;50.10;;;21.30;;
11135;SDS011;5622;50.840;4.948;2022-12-10T02:57:15;44.30;;;20.07;;
11135;SDS011;5622;50.840;4.948;2022-12-10T02:59:59;48.47;;;22.23;;
11135;SDS011;5622;50.840;4.948;2022-12-10T03:02:33;46.33;;;19.50;;
11135;SDS011;5622;50.840;4.948;2022-12-10T03:05:09;47.07;;;20.87;;
11135;SDS011;5622;50.840;4.948;2022-12-10T03:07:44;49.00;;;21.57;;
11135;SDS011;5622;50.840;4.948;2022-12-10T03:10:17;56.77;;;22.00;;
11135;SDS011;5622;50.840;4.948;2022-12-10T03:12:53;47.80;;;21.10;;
11135;SDS011;5622;50.840;4.948;2022-12-10T03:15:26;50.40;;;22.23;;
11135;SDS011;5622;50.840;4.948;2022-12-10T03:17:56;49.53;;;20.90;;
11135;SDS011;5622;50.840;4.948;2022-12-10T03:20:25;50.07;;;20.03;;
11135;SDS011;5622;50.840;4.948;2022-12-10T03:22:53;51.80;;;21.80;;
11135;SDS011;5622;50.840;4.948;2022-12-10T03:25:22;47.13;;;19.87;;
11135;SDS011;5622;50.840;4.948;2022-12-10T03:27:54;48.50;;;22.20;;
11135;SDS011;5622;50.840;4.948;2022-12-10T03:30:22;47.00;;;19.80;;
11135;SDS011;5622;50.840;4.948;2022-12-10T03:32:51;48.20;;;22.37;;
11135;SDS011;5622;50.840;4.948;2022-12-10T03:35:20;50.53;;;20.73;;
11135;SDS011;5622;50.840;4.948;2022-12-10T03:37:49;44.30;;;20.43;;
11135;SDS011;5622;50.840;4.948;2022-12-10T03:40:17;54.07;;;22.23;;
11135;SDS011;5622;50.840;4.948;2022-12-10T03:42:48;52.10;;;23.57;;
11135;SDS011;5622;50.840;4.948;2022-12-10T03:45:15;61.87;;;23.63;;
11135;SDS011;5622;50.840;4.948;2022-12-10T03:47:42;59.67;;;23.93;;
11135;SDS011;5622;50.840;4.948;2022-12-10T03:50:11;54.23;;;22.10;;
11135;SDS011;5622;50.840;4.948;2022-12-10T03:52:38;54.73;;;21.67;;
11135;SDS011;5622;50.840;4.948;2022-12-10T03:55:05;58.50;;;22.90;;
11135;SDS011;5622;50.840;4.948;2022-12-10T03:57:33;57.43;;;22.97;;
11135;SDS011;5622;50.840;4.948;2022-12-10T04:00:00;50.83;;;22.13;;
11135;SDS011;5622;50.840;4.948;2022-12-10T04:02:28;54.90;;;22.93;;
11135;SDS011;5622;50.840;4.948;2022-12-10T04:04:55;52.07;;;21.97;;
11135;SDS011;5622;50.840;4.948;2022-12-10T04:07:24;49.50;;;20.93;;
11135;SDS011;5622;50.840;4.948;2022-12-10T04:09:51;53.10;;;22.90;;
11135;SDS011;5622;50.840;4.948;2022-12-10T04:12:18;55.97;;;22.87;;
11135;SDS011;5622;50.840;4.948;2022-12-10T04:14:45;53.67;;;22.43;;
11135;SDS011;5622;50.840;4.948;2022-12-10T04:17:26;64.17;;;24.60;;
11135;SDS011;5622;50.840;4.948;2022-12-10T04:19:53;56.80;;;23.23;;
11135;SDS011;5622;50.840;4.948;2022-12-10T04:22:20;61.73;;;24.97;;
11135;SDS011;5622;50.840;4.948;2022-12-10T04:25:06;64.43;;;24.90;;
11135;SDS011;5622;50.840;4.948;2022-12-10T04:27:51;66.77;;;25.93;;
11135;SDS011;5622;50.840;4.948;2022-12-10T04:30:18;52.50;;;23.03;;
11135;SDS011;5622;50.840;4.948;2022-12-10T04:32:46;60.37;;;26.40;;
11135;SDS011;5622;50.840;4.948;2022-12-10T04:35:13;63.67;;;24.87;;
11135;SDS011;5622;50.840;4.948;2022-12-10T04:37:40;60.13;;;24.27;;
11135;SDS011;5622;50.840;4.948;2022-12-10T04:40:09;60.80;;;24.33;;
11135;SDS011;5622;50.840;4.948;2022-12-10T04:42:37;60.40;;;23.77;;
11135;SDS011;5622;50.840;4.948;2022-12-10T04:45:04;59.67;;;23.07;;
11135;SDS011;5622;50.840;4.948;2022-12-10T04:47:32;54.57;;;23.33;;
11135;SDS011;5622;50.840;4.948;2022-12-10T04:49:59;57.47;;;24.00;;
11135;SDS011;5622;50.840;4.948;2022-12-10T04:52:26;60.33;;;23.90;;
11135;SDS011;5622;50.840;4.948;2022-12-10T04:54:53;62.53;;;24.60;;
11135;SDS011;5622;50.840;4.948;2022-12-10T04:57:22;53.80;;;22.60;;
11135;SDS011;5622;50.840;4.948;2022-12-10T04:59:49;59.80;;;22.93;;
11135;SDS011;5622;50.840;4.948;2022-12-10T05:02:16;53.50;;;23.60;;
11135;SDS011;5622;50.840;4.948;2022-12-10T05:04:43;57.93;;;24.90;;
11135;SDS011;5622;50.840;4.948;2022-12-10T05:07:10;61.57;;;24.90;;
11135;SDS011;5622;50.840;4.948;2022-12-10T05:09:37;55.43;;;23.33;;
11135;SDS011;5622;50.840;4.948;2022-12-10T05:12:04;61.83;;;25.43;;
11135;SDS011;5622;50.840;4.948;2022-12-10T05:14:33;56.47;;;24.33;;
11135;SDS011;5622;50.840;4.948;2022-12-10T05:17:00;69.37;;;27.03;;
11135;SDS011;5622;50.840;4.948;2022-12-10T05:19:27;69.83;;;25.80;;
11135;SDS011;5622;50.840;4.948;2022-12-10T05:21:54;68.90;;;26.67;;
11135;SDS011;5622;50.840;4.948;2022-12-10T05:24:39;59.53;;;27.53;;
11135;SDS011;5622;50.840;4.948;2022-12-10T05:27:06;64.60;;;26.23;;
11135;SDS011;5622;50.840;4.948;2022-12-10T05:29:35;64.53;;;26.73;;
11135;SDS011;5622;50.840;4.948;2022-12-10T05:32:02;62.83;;;25.57;;
11135;SDS011;5622;50.840;4.948;2022-12-10T05:34:30;58.23;;;24.13;;
11135;SDS011;5622;50.840;4.948;2022-12-10T05:36:57;57.80;;;24.10;;
11135;SDS011;5622;50.840;4.948;2022-12-10T05:39:24;64.67;;;24.83;;
11135;SDS011;5622;50.840;4.948;2022-12-10T05:41:51;54.27;;;23.17;;
11135;SDS011;5622;50.840;4.948;2022-12-10T05:44:18;56.70;;;23.80;;
11135;SDS011;5622;50.840;4.948;2022-12-10T05:46:47;57.70;;;23.50;;
11135;SDS011;5622;50.840;4.948;2022-12-10T05:49:14;65.87;;;25.70;;
11135;SDS011;5622;50.840;4.948;2022-12-10T05:51:41;60.90;;;24.77;;
11135;SDS011;5622;50.840;4.948;2022-12-10T05:54:09;55.27;;;22.83;;
11135;SDS011;5622;50.840;4.948;2022-12-10T05:56:36;51.47;;;22.93;;
11135;SDS011;5622;50.840;4.948;2022-12-10T05:59:04;51.50;;;22.17;;
11135;SDS011;5622;50.840;4.948;2022-12-10T06:01:34;57.27;;;24.87;;
11135;SDS011;5622;50.840;4.948;2022-12-10T06:04:04;59.33;;;24.93;;
11135;SDS011;5622;50.840;4.948;2022-12-10T06:06:31;63.63;;;25.73;;
11135;SDS011;5622;50.840;4.948;2022-12-10T06:09:00;64.30;;;25.03;;
11135;SDS011;5622;50.840;4.948;2022-12-10T06:11:28;73.17;;;28.03;;
11135;SDS011;5622;50.840;4.948;2022-12-10T06:13:55;70.23;;;25.80;;
11135;SDS011;5622;50.840;4.948;2022-12-10T06:16:24;61.33;;;25.33;;
11135;SDS011;5622;50.840;4.948;2022-12-10T06:18:52;61.33;;;24.53;;
11135;SDS011;5622;50.840;4.948;2022-12-10T06:21:21;59.80;;;24.30;;
11135;SDS011;5622;50.840;4.948;2022-12-10T06:23:48;57.37;;;24.50;;
11135;SDS011;5622;50.840;4.948;2022-12-10T06:26:17;60.37;;;23.17;;
11135;SDS011;5622;50.840;4.948;2022-12-10T06:28:45;58.00;;;23.33;;
11135;SDS011;5622;50.840;4.948;2022-12-10T06:31:13;55.03;;;22.73;;
11135;SDS011;5622;50.840;4.948;2022-12-10T06:33:40;54.83;;;23.67;;
11135;SDS011;5622;50.840;4.948;2022-12-10T06:36:08;58.30;;;23.27;;
11135;SDS011;5622;50.840;4.948;2022-12-10T06:38:38;59.30;;;24.13;;
11135;SDS011;5622;50.840;4.948;2022-12-10T06:41:06;63.33;;;23.93;;
11135;SDS011;5622;50.840;4.948;2022-12-10T06:43:34;60.17;;;23.43;;
11135;SDS011;5622;50.840;4.948;2022-12-10T06:46:03;60.10;;;23.40;;
11135;SDS011;5622;50.840;4.948;2022-12-10T06:48:31;64.00;;;25.13;;
11135;SDS011;5622;50.840;4.948;2022-12-10T06:50:59;65.67;;;25.03;;
11135;SDS011;5622;50.840;4.948;2022-12-10T06:53:26;53.70;;;22.13;;
11135;SDS011;5622;50.840;4.948;2022-12-10T06:55:56;67.30;;;24.40;;
11135;SDS011;5622;50.840;4.948;2022-12-10T06:58:24;57.97;;;23.20;;
11135;SDS011;5622;50.840;4.948;2022-12-10T07:00:53;57.47;;;23.80;;
11135;SDS011;5622;50.840;4.948;2022-12-10T07:03:20;59.50;;;23.13;;
11135;SDS011;5622;50.840;4.948;2022-12-10T07:05:47;54.53;;;21.83;;
11135;SDS011;5622;50.840;4.948;2022-12-10T07:08:15;60.57;;;22.87;;
11135;SDS011;5622;50.840;4.948;2022-12-10T07:10:42;66.87;;;24.67;;
11135;SDS011;5622;50.840;4.948;2022-12-10T07:13:11;58.23;;;22.30;;
11135;SDS011;5622;50.840;4.948;2022-12-10T07:15:38;56.97;;;22.00;;
11135;SDS011;5622;50.840;4.948;2022-12-10T07:18:05;60.37;;;23.90;;
11135;SDS011;5622;50.840;4.948;2022-12-10T07:20:32;59.47;;;23.10;;
11135;SDS011;5622;50.840;4.948;2022-12-10T07:22:59;68.37;;;24.13;;
11135;SDS011;5622;50.840;4.948;2022-12-10T07:25:26;61.83;;;23.33;;
11135;SDS011;5622;50.840;4.948;2022-12-10T07:27:55;68.77;;;24.97;;
11135;SDS011;5622;50.840;4.948;2022-12-10T07:30:23;64.30;;;24.57;;
11135;SDS011;5622;50.840;4.948;2022-12-10T07:32:50;63.10;;;24.77;;
11135;SDS011;5622;50.840;4.948;2022-12-10T07:35:17;65.50;;;23.60;;
11135;SDS011;5622;50.840;4.948;2022-12-10T07:37:45;66.57;;;24.20;;
11135;SDS011;5622;50.840;4.948;2022-12-10T07:40:12;62.17;;;22.27;;
11135;SDS011;5622;50.840;4.948;2022-12-10T07:42:39;68.83;;;24.67;;
11135;SDS011;5622;50.840;4.948;2022-12-10T07:45:06;75.43;;;26.60;;
11135;SDS011;5622;50.840;4.948;2022-12-10T07:47:36;65.50;;;24.23;;
11135;SDS011;5622;50.840;4.948;2022-12-10T07:50:04;78.33;;;27.60;;
11135;SDS011;5622;50.840;4.948;2022-12-10T07:52:31;76.03;;;27.27;;
11135;SDS011;5622;50.840;4.948;2022-12-10T07:54:59;76.97;;;28.47;;
11135;SDS011;5622;50.840;4.948;2022-12-10T07:57:27;77.33;;;28.83;;
11135;SDS011;5622;50.840;4.948;2022-12-10T07:59:54;73.20;;;25.97;;
11135;SDS011;5622;50.840;4.948;2022-12-10T08:02:23;75.60;;;28.77;;
11135;SDS011;5622;50.840;4.948;2022-12-10T08:04:51;79.83;;;29.23;;
11135;SDS011;5622;50.840;4.948;2022-12-10T08:07:18;83.67;;;29.10;;
11135;SDS011;5622;50.840;4.948;2022-12-10T08:09:46;80.03;;;28.47;;
11135;SDS011;5622;50.840;4.948;2022-12-10T08:12:13;73.50;;;27.37;;
11135;SDS011;5622;50.840;4.948;2022-12-10T08:14:40;80.73;;;29.43;;
11135;SDS011;5622;50.840;4.948;2022-12-10T08:17:07;69.87;;;24.97;;
11135;SDS011;5622;50.840;4.948;2022-12-10T08:19:34;70.83;;;25.80;;
11135;SDS011;5622;50.840;4.948;2022-12-10T08:22:02;65.07;;;26.27;;
11135;SDS011;5622;50.840;4.948;2022-12-10T08:24:30;61.33;;;24.70;;
11135;SDS011;5622;50.840;4.948;2022-12-10T08:26:57;63.80;;;24.23;;
11135;SDS011;5622;50.840;4.948;2022-12-10T08:29:24;61.83;;;23.27;;
11135;SDS011;5622;50.840;4.948;2022-12-10T08:31:51;67.13;;;26.03;;
11135;SDS011;5622;50.840;4.948;2022-12-10T08:34:18;65.00;;;24.50;;
11135;SDS011;5622;50.840;4.948;2022-12-10T08:36:45;59.47;;;23.50;;
11135;SDS011;5622;50.840;4.948;2022-12-10T08:39:14;66.87;;;24.83;;
11135;SDS011;5622;50.840;4.948;2022-12-10T08:41:41;57.30;;;23.17;;
11135;SDS011;5622;50.840;4.948;2022-12-10T08:44:10;49.37;;;21.47;;
11135;SDS011;5622;50.840;4.948;2022-12-10T08:46:37;51.93;;;21.40;;
11135;SDS011;5622;50.840;4.948;2022-12-10T08:49:04;51.07;;;19.83;;
11135;SDS011;5622;50.840;4.948;2022-12-10T08:51:33;50.97;;;21.30;;
11135;SDS011;5622;50.840;4.948;2022-12-10T08:57:08;44.60;;;19.50;;
11135;SDS011;5622;50.840;4.948;2022-12-10T08:59:35;44.00;;;19.13;;
11135;SDS011;5622;50.840;4.948;2022-12-10T09:02:02;40.20;;;18.27;;
11135;SDS011;5622;50.840;4.948;2022-12-10T09:04:29;42.97;;;16.73;;
11135;SDS011;5622;50.840;4.948;2022-12-10T09:06:56;40.67;;;17.07;;
11135;SDS011;5622;50.840;4.948;2022-12-10T09:09:23;45.00;;;17.93;;
11135;SDS011;5622;50.840;4.948;2022-12-10T09:11:50;40.80;;;16.80;;
11135;SDS011;5622;50.840;4.948;2022-12-10T09:14:19;35.30;;;15.57;;
11135;SDS011;5622;50.840;4.948;2022-12-10T09:16:46;46.40;;;17.87;;
11135;SDS011;5622;50.840;4.948;2022-12-10T09:19:13;45.53;;;17.60;;
11135;SDS011;5622;50.840;4.948;2022-12-10T09:21:40;48.90;;;20.57;;
11135;SDS011;5622;50.840;4.948;2022-12-10T09:24:08;44.67;;;19.50;;
11135;SDS011;5622;50.840;4.948;2022-12-10T09:26:35;65.43;;;36.47;;
11135;SDS011;5622;50.840;4.948;2022-12-10T09:29:02;55.13;;;29.13;;
11135;SDS011;5622;50.840;4.948;2022-12-10T09:31:31;49.97;;;26.20;;
11135;SDS011;5622;50.840;4.948;2022-12-10T09:33:58;40.03;;;17.70;;
11135;SDS011;5622;50.840;4.948;2022-12-10T09:36:25;42.87;;;19.40;;
11135;SDS011;5622;50.840;4.948;2022-12-10T09:38:52;40.03;;;18.27;;
11135;SDS011;5622;50.840;4.948;2022-12-10T09:41:33;42.17;;;19.90;;
11135;SDS011;5622;50.840;4.948;2022-12-10T09:44:07;47.90;;;26.33;;
11135;SDS011;5622;50.840;4.948;2022-12-10T09:46:44;36.83;;;17.90;;
11135;SDS011;5622;50.840;4.948;2022-12-10T09:49:18;39.57;;;20.73;;
11135;SDS011;5622;50.840;4.948;2022-12-10T09:51:53;44.83;;;22.33;;
11135;SDS011;5622;50.840;4.948;2022-12-10T09:54:24;41.13;;;21.40;;
11135;SDS011;5622;50.840;4.948;2022-12-10T09:56:53;40.60;;;19.50;;
11135;SDS011;5622;50.840;4.948;2022-12-10T09:59:24;36.93;;;16.67;;
11135;SDS011;5622;50.840;4.948;2022-12-10T10:02:00;34.57;;;15.43;;
11135;SDS011;5622;50.840;4.948;2022-12-10T10:04:30;39.80;;;16.17;;
11135;SDS011;5622;50.840;4.948;2022-12-10T10:06:57;44.33;;;16.43;;
11135;SDS011;5622;50.840;4.948;2022-12-10T10:09:24;38.30;;;17.33;;
11135;SDS011;5622;50.840;4.948;2022-12-10T10:11:51;30.60;;;15.10;;
11135;SDS011;5622;50.840;4.948;2022-12-10T10:14:20;39.93;;;16.93;;
11135;SDS011;5622;50.840;4.948;2022-12-10T10:16:53;42.23;;;15.73;;
11135;SDS011;5622;50.840;4.948;2022-12-10T10:25:32;30.13;;;14.80;;
11135;SDS011;5622;50.840;4.948;2022-12-10T10:27:59;37.13;;;16.87;;
11135;SDS011;5622;50.840;4.948;2022-12-10T10:30:27;34.93;;;16.70;;
11135;SDS011;5622;50.840;4.948;2022-12-10T10:32:55;32.57;;;14.33;;
11135;SDS011;5622;50.840;4.948;2022-12-10T10:35:25;34.90;;;15.07;;
11135;SDS011;5622;50.840;4.948;2022-12-10T10:37:58;38.20;;;16.37;;
11135;SDS011;5622;50.840;4.948;2022-12-10T10:40:28;33.40;;;14.47;;
11135;SDS011;5622;50.840;4.948;2022-12-10T10:42:59;38.30;;;16.93;;
11135;SDS011;5622;50.840;4.948;2022-12-10T10:45:34;36.50;;;16.77;;
11135;SDS011;5622;50.840;4.948;2022-12-10T10:48:10;31.63;;;14.77;;
11135;SDS011;5622;50.840;4.948;2022-12-10T10:50:40;33.53;;;15.40;;
11135;SDS011;5622;50.840;4.948;2022-12-10T10:56:11;34.23;;;15.37;;
11135;SDS011;5622;50.840;4.948;2022-12-10T11:01:42;37.63;;;15.87;;
11135;SDS011;5622;50.840;4.948;2022-12-10T11:04:11;33.70;;;15.70;;
11135;SDS011;5622;50.840;4.948;2022-12-10T11:06:40;31.37;;;14.60;;
11135;SDS011;5622;50.840;4.948;2022-12-10T11:09:13;40.23;;;16.77;;
11135;SDS011;5622;50.840;4.948;2022-12-10T11:11:50;38.03;;;15.80;;
11135;SDS011;5622;50.840;4.948;2022-12-10T11:14:24;43.43;;;16.27;;
11135;SDS011;5622;50.840;4.948;2022-12-10T11:16:59;36.70;;;15.67;;
11135;SDS011;5622;50.840;4.948;2022-12-10T11:19:29;31.10;;;14.43;;
11135;SDS011;5622;50.840;4.948;2022-12-10T11:22:01;33.23;;;15.20;;
11135;SDS011;5622;50.840;4.948;2022-12-10T11:24:42;39.13;;;16.57;;
11135;SDS011;5622;50.840;4.948;2022-12-10T11:27:13;37.37;;;16.50;;
11135;SDS011;5622;50.840;4.948;2022-12-10T11:29:52;34.80;;;15.13;;
11135;SDS011;5622;50.840;4.948;2022-12-10T11:32:39;36.40;;;16.10;;
11135;SDS011;5622;50.840;4.948;2022-12-10T11:35:19;31.50;;;13.73;;
11135;SDS011;5622;50.840;4.948;2022-12-10T11:37:53;37.27;;;16.07;;
11135;SDS011;5622;50.840;4.948;2022-12-10T11:40:28;36.63;;;15.67;;
11135;SDS011;5622;50.840;4.948;2022-12-10T11:43:16;34.40;;;15.07;;
11135;SDS011;5622;50.840;4.948;2022-12-10T11:46:07;37.57;;;15.10;;
11135;SDS011;5622;50.840;4.948;2022-12-10T11:48:52;43.27;;;16.93;;
11135;SDS011;5622;50.840;4.948;2022-12-10T11:51:29;37.13;;;16.33;;
11135;SDS011;5622;50.840;4.948;2022-12-10T11:54:09;36.47;;;15.47;;
11135;SDS011;5622;50.840;4.948;2022-12-10T11:56:47;40.63;;;16.70;;
11135;SDS011;5622;50.840;4.948;2022-12-10T11:59:22;42.17;;;16.83;;
11135;SDS011;5622;50.840;4.948;2022-12-10T12:01:59;36.70;;;15.87;;
11135;SDS011;5622;50.840;4.948;2022-12-10T12:04:45;36.80;;;16.70;;
11135;SDS011;5622;50.840;4.948;2022-12-10T12:07:26;36.13;;;15.13;;
11135;SDS011;5622;50.840;4.948;2022-12-10T12:10:10;32.67;;;14.40;;
11135;SDS011;5622;50.840;4.948;2022-12-10T12:12:58;36.43;;;15.07;;
11135;SDS011;5622;50.840;4.948;2022-12-10T12:15:31;33.80;;;16.10;;
11135;SDS011;5622;50.840;4.948;2022-12-10T12:18:03;32.83;;;15.60;;
11135;SDS011;5622;50.840;4.948;2022-12-10T12:20:38;41.67;;;17.40;;
11135;SDS011;5622;50.840;4.948;2022-12-10T12:23:10;35.00;;;15.67;;
11135;SDS011;5622;50.840;4.948;2022-12-10T12:25:42;30.73;;;15.83;;
11135;SDS011;5622;50.840;4.948;2022-12-10T12:28:14;36.80;;;16.83;;
11135;SDS011;5622;50.840;4.948;2022-12-10T12:30:48;39.57;;;16.50;;
11135;SDS011;5622;50.840;4.948;2022-12-10T12:33:25;37.37;;;16.53;;
11135;SDS011;5622;50.840;4.948;2022-12-10T12:35:55;38.77;;;16.60;;
11135;SDS011;5622;50.840;4.948;2022-12-10T12:38:28;33.93;;;15.70;;
11135;SDS011;5622;50.840;4.948;2022-12-10T12:40:57;34.90;;;15.83;;
11135;SDS011;5622;50.840;4.948;2022-12-10T12:43:32;38.97;;;16.07;;
11135;SDS011;5622;50.840;4.948;2022-12-10T12:46:11;39.07;;;17.20;;
11135;SDS011;5622;50.840;4.948;2022-12-10T12:48:43;40.87;;;17.80;;
11135;SDS011;5622;50.840;4.948;2022-12-10T12:51:19;37.93;;;16.57;;
11135;SDS011;5622;50.840;4.948;2022-12-10T12:53:49;46.17;;;19.40;;
11135;SDS011;5622;50.840;4.948;2022-12-10T12:56:19;46.03;;;19.20;;
11135;SDS011;5622;50.840;4.948;2022-12-10T13:02:02;40.33;;;17.13;;
11135;SDS011;5622;50.840;4.948;2022-12-10T13:04:41;48.87;;;17.70;;
11135;SDS011;5622;50.840;4.948;2022-12-10T13:07:09;38.70;;;18.10;;
11135;SDS011;5622;50.840;4.948;2022-12-10T13:10:08;43.17;;;17.57;;
11135;SDS011;5622;50.840;4.948;2022-12-10T13:12:51;39.23;;;16.27;;
11135;SDS011;5622;50.840;4.948;2022-12-10T13:15:34;47.07;;;19.23;;
11135;SDS011;5622;50.840;4.948;2022-12-10T13:24:05;42.53;;;19.20;;
11135;SDS011;5622;50.840;4.948;2022-12-10T13:26:41;35.00;;;16.00;;
11135;SDS011;5622;50.840;4.948;2022-12-10T13:29:24;45.50;;;19.27;;
11135;SDS011;5622;50.840;4.948;2022-12-10T13:31:56;47.03;;;19.10;;
11135;SDS011;5622;50.840;4.948;2022-12-10T13:34:33;37.57;;;17.40;;
11135;SDS011;5622;50.840;4.948;2022-12-10T13:37:10;40.37;;;17.37;;
11135;SDS011;5622;50.840;4.948;2022-12-10T13:40:00;40.57;;;18.60;;
11135;SDS011;5622;50.840;4.948;2022-12-10T13:42:43;38.13;;;16.60;;
11135;SDS011;5622;50.840;4.948;2022-12-10T13:45:30;44.63;;;18.47;;
11135;SDS011;5622;50.840;4.948;2022-12-10T13:48:16;42.57;;;18.27;;
11135;SDS011;5622;50.840;4.948;2022-12-10T13:50:56;48.33;;;21.00;;
11135;SDS011;5622;50.840;4.948;2022-12-10T13:53:34;45.40;;;20.77;;
11135;SDS011;5622;50.840;4.948;2022-12-10T13:56:13;49.57;;;22.90;;
11135;SDS011;5622;50.840;4.948;2022-12-10T13:58:54;40.60;;;18.83;;
11135;SDS011;5622;50.840;4.948;2022-12-10T14:01:32;40.00;;;17.00;;
11135;SDS011;5622;50.840;4.948;2022-12-10T14:04:17;45.50;;;19.70;;
11135;SDS011;5622;50.840;4.948;2022-12-10T14:06:56;45.27;;;18.93;;
11135;SDS011;5622;50.840;4.948;2022-12-10T14:09:25;42.37;;;19.57;;
11135;SDS011;5622;50.840;4.948;2022-12-10T14:11:58;40.30;;;17.00;;
11135;SDS011;5622;50.840;4.948;2022-12-10T14:14:29;39.00;;;17.37;;
11135;SDS011;5622;50.840;4.948;2022-12-10T14:17:00;41.40;;;18.27;;
11135;SDS011;5622;50.840;4.948;2022-12-10T14:19:28;40.43;;;19.33;;
11135;SDS011;5622;50.840;4.948;2022-12-10T14:21:57;40.07;;;17.77;;
11135;SDS011;5622;50.840;4.948;2022-12-10T14:24:25;42.17;;;19.20;;
11135;SDS011;5622;50.840;4.948;2022-12-10T14:26:55;40.97;;;18.13;;
11135;SDS011;5622;50.840;4.948;2022-12-10T14:29:25;45.47;;;19.47;;
11135;SDS011;5622;50.840;4.948;2022-12-10T14:31:52;50.17;;;20.30;;
11135;SDS011;5622;50.840;4.948;2022-12-10T14:34:21;42.73;;;18.77;;
11135;SDS011;5622;50.840;4.948;2022-12-10T14:36:51;45.10;;;20.10;;
11135;SDS011;5622;50.840;4.948;2022-12-10T14:39:22;53.93;;;23.60;;
11135;SDS011;5622;50.840;4.948;2022-12-10T14:41:53;52.50;;;21.57;;
11135;SDS011;5622;50.840;4.948;2022-12-10T14:44:22;54.90;;;23.27;;
11135;SDS011;5622;50.840;4.948;2022-12-10T14:46:50;48.90;;;22.07;;
11135;SDS011;5622;50.840;4.948;2022-12-10T14:49:20;50.17;;;21.17;;
11135;SDS011;5622;50.840;4.948;2022-12-10T14:51:49;66.67;;;30.53;;
11135;SDS011;5622;50.840;4.948;2022-12-10T14:54:25;101.80;;;53.93;;
11135;SDS011;5622;50.840;4.948;2022-12-10T14:56:54;104.53;;;56.30;;
11135;SDS011;5622;50.840;4.948;2022-12-10T14:59:23;82.67;;;47.70;;
11135;SDS011;5622;50.840;4.948;2022-12-10T15:01:55;71.87;;;39.47;;
11135;SDS011;5622;50.840;4.948;2022-12-10T15:04:25;69.93;;;41.57;;
11135;SDS011;5622;50.840;4.948;2022-12-10T15:07:05;66.53;;;38.30;;
11135;SDS011;5622;50.840;4.948;2022-12-10T15:09:38;55.33;;;25.80;;
11135;SDS011;5622;50.840;4.948;2022-12-10T15:12:05;81.23;;;42.20;;
11135;SDS011;5622;50.840;4.948;2022-12-10T15:15:02;64.17;;;29.87;;
11135;SDS011;5622;50.840;4.948;2022-12-10T15:17:38;52.20;;;23.20;;
11135;SDS011;5622;50.840;4.948;2022-12-10T15:22:53;48.33;;;21.07;;
11135;SDS011;5622;50.840;4.948;2022-12-10T15:25:27;54.20;;;23.17;;
11135;SDS011;5622;50.840;4.948;2022-12-10T15:27:55;49.53;;;22.20;;